sensor_id;sensor_type;location;lat;lon;timestamp;pressure;altitude;pressure_sealevel;temperature;humidity
54308;BME280;40208;39.778;2.710;2023-03-04T00:02:11;101906.09;;;3.94;100.00
54308;BME280;40208;39.778;2.710;2023-03-04T00:04:56;101902.56;;;4.00;100.00
54308;BME280;40208;39.778;2.710;2023-03-04T00:07:40;101853.53;;;3.65;100.00
54308;BME280;40208;39.778;2.710;2023-03-04T00:10:25;101869.31;;;3.80;100.00
54308;BME280;40208;39.778;2.710;2023-03-04T00:13:10;101836.91;;;3.52;100.00
54308;BME280;40208;39.778;2.710;2023-03-04T00:15:55;101903.47;;;3.94;100.00
54308;BME280;40208;39.778;2.710;2023-03-04T00:18:39;101852.66;;;3.68;100.00
54308;BME280;40208;39.778;2.710;2023-03-04T00:21:24;101856.19;;;3.67;100.00
54308;BME280;40208;39.778;2.710;2023-03-04T00:24:09;101906.06;;;3.96;100.00
54308;BME280;40208;39.778;2.710;2023-03-04T00:26:54;101902.59;;;3.97;100.00
54308;BME280;40208;39.778;2.710;2023-03-04T00:29:38;101869.31;;;3.71;100.00
54308;BME280;40208;39.778;2.710;2023-03-04T00:32:23;101900.81;;;3.93;100.00
54308;BME280;40208;39.778;2.710;2023-03-04T00:35:08;101858.78;;;3.62;100.00
54308;BME280;40208;39.778;2.710;2023-03-04T00:37:53;101888.56;;;3.86;100.00
54308;BME280;40208;39.778;2.710;2023-03-04T00:40:38;101849.19;;;3.56;100.00
54308;BME280;40208;39.778;2.710;2023-03-04T00:43:23;101911.31;;;3.87;100.00
54308;BME280;40208;39.778;2.710;2023-03-04T00:46:08;101855.28;;;3.55;100.00
54308;BME280;40208;39.778;2.710;2023-03-04T00:48:53;101840.41;;;3.50;100.00
54308;BME280;40208;39.778;2.710;2023-03-04T00:51:38;101879.78;;;3.62;100.00
54308;BME280;40208;39.778;2.710;2023-03-04T00:54:23;101892.94;;;3.83;100.00
54308;BME280;40208;39.778;2.710;2023-03-04T00:57:07;101813.28;;;3.45;100.00
54308;BME280;40208;39.778;2.710;2023-03-04T00:59:52;101895.56;;;3.97;100.00
54308;BME280;40208;39.778;2.710;2023-03-04T01:02:37;101858.81;;;3.68;100.00
54308;BME280;40208;39.778;2.710;2023-03-04T01:05:22;101838.66;;;3.58;100.00
54308;BME280;40208;39.778;2.710;2023-03-04T01:08:07;101825.53;;;3.55;100.00
54308;BME280;40208;39.778;2.710;2023-03-04T01:10:52;101761.69;;;3.16;100.00
54308;BME280;40208;39.778;2.710;2023-03-04T01:13:37;101884.19;;;3.77;100.00
54308;BME280;40208;39.778;2.710;2023-03-04T01:16:23;101835.16;;;3.47;100.00
54308;BME280;40208;39.778;2.710;2023-03-04T01:19:08;101880.69;;;3.78;100.00
54308;BME280;40208;39.778;2.710;2023-03-04T01:21:53;101830.78;;;3.46;100.00
54308;BME280;40208;39.778;2.710;2023-03-04T01:24:38;101876.31;;;3.75;100.00
54308;BME280;40208;39.778;2.710;2023-03-04T01:27:22;101823.78;;;3.35;100.00
54308;BME280;40208;39.778;2.710;2023-03-04T01:30:08;101870.16;;;3.58;100.00
54308;BME280;40208;39.778;2.710;2023-03-04T01:32:53;101820.25;;;3.27;100.00
54308;BME280;40208;39.778;2.710;2023-03-04T01:35:38;101780.88;;;3.03;100.00
54308;BME280;40208;39.778;2.710;2023-03-04T01:38:23;101869.28;;;3.56;100.00
54308;BME280;40208;39.778;2.710;2023-03-04T01:41:10;101836.91;;;3.32;100.00
54308;BME280;40208;39.778;2.710;2023-03-04T01:43:58;101818.53;;;3.28;100.00
54308;BME280;40208;39.778;2.710;2023-03-04T01:46:51;101868.41;;;3.60;100.00
54308;BME280;40208;39.778;2.710;2023-03-04T01:49:36;101864.94;;;3.61;100.00
54308;BME280;40208;39.778;2.710;2023-03-04T01:52:21;101825.53;;;3.39;100.00
54308;BME280;40208;39.778;2.710;2023-03-04T01:55:18;101867.56;;;3.66;100.00
54308;BME280;40208;39.778;2.710;2023-03-04T01:58:04;101817.66;;;3.43;100.00
54308;BME280;40208;39.778;2.710;2023-03-04T02:00:49;101805.41;;;3.42;100.00
54308;BME280;40208;39.778;2.710;2023-03-04T02:03:34;101857.03;;;3.72;100.00
54308;BME280;40208;39.778;2.710;2023-03-04T02:06:22;101803.69;;;3.50;100.00
54308;BME280;40208;39.778;2.710;2023-03-04T02:09:08;101847.44;;;3.85;100.00
54308;BME280;40208;39.778;2.710;2023-03-04T02:11:53;101846.53;;;3.75;100.00
54308;BME280;40208;39.778;2.710;2023-03-04T02:14:38;101794.91;;;3.51;100.00
54308;BME280;40208;39.778;2.710;2023-03-04T02:17:25;101829.06;;;3.74;100.00
54308;BME280;40208;39.778;2.710;2023-03-04T02:26:45;101836.03;;;3.86;100.00
54308;BME280;40208;39.778;2.710;2023-03-04T02:29:30;101817.66;;;3.76;100.00
54308;BME280;40208;39.778;2.710;2023-03-04T02:32:15;101773.03;;;3.46;100.00
54308;BME280;40208;39.778;2.710;2023-03-04T02:35:00;101835.16;;;3.88;100.00
54308;BME280;40208;39.778;2.710;2023-03-04T02:37:45;101832.56;;;3.90;100.00
54308;BME280;40208;39.778;2.710;2023-03-04T02:40:32;101808.94;;;3.76;100.00
54308;BME280;40208;39.778;2.710;2023-03-04T02:43:17;101776.56;;;3.48;100.00
54308;BME280;40208;39.778;2.710;2023-03-04T02:46:01;101756.41;;;3.34;100.00
54308;BME280;40208;39.778;2.710;2023-03-04T02:48:46;101789.69;;;3.66;100.00
54308;BME280;40208;39.778;2.710;2023-03-04T02:51:32;101818.53;;;3.94;100.00
54308;BME280;40208;39.778;2.710;2023-03-04T02:54:20;101794.91;;;3.81;100.00
54308;BME280;40208;39.778;2.710;2023-03-04T02:57:08;101793.16;;;3.79;100.00
54308;BME280;40208;39.778;2.710;2023-03-04T02:59:53;101810.66;;;3.86;100.00
54308;BME280;40208;39.778;2.710;2023-03-04T03:02:38;101745.06;;;3.48;100.00
54308;BME280;40208;39.778;2.710;2023-03-04T03:05:24;101757.31;;;3.59;100.00
54308;BME280;40208;39.778;2.710;2023-03-04T03:08:10;101780.03;;;3.70;100.00
54308;BME280;40208;39.778;2.710;2023-03-04T03:10:54;101758.19;;;3.52;100.00
54308;BME280;40208;39.778;2.710;2023-03-04T03:13:39;101720.56;;;3.33;100.00
54308;BME280;40208;39.778;2.710;2023-03-04T03:16:24;101755.56;;;3.66;100.00
54308;BME280;40208;39.778;2.710;2023-03-04T03:19:09;101782.66;;;3.74;100.00
54308;BME280;40208;39.778;2.710;2023-03-04T03:21:54;101744.19;;;3.59;100.00
54308;BME280;40208;39.778;2.710;2023-03-04T03:24:39;101806.31;;;3.77;100.00
54308;BME280;40208;39.778;2.710;2023-03-04T03:27:24;101798.44;;;3.73;100.00
54308;BME280;40208;39.778;2.710;2023-03-04T03:30:11;101730.19;;;3.33;100.00
54308;BME280;40208;39.778;2.710;2023-03-04T03:32:57;101760.81;;;3.43;100.00
54308;BME280;40208;39.778;2.710;2023-03-04T03:35:41;101801.06;;;3.64;100.00
54308;BME280;40208;39.778;2.710;2023-03-04T03:38:27;101776.56;;;3.48;100.00
54308;BME280;40208;39.778;2.710;2023-03-04T03:41:12;101723.19;;;3.10;100.00
54308;BME280;40208;39.778;2.710;2023-03-04T03:43:57;101738.91;;;3.23;100.00
54308;BME280;40208;39.778;2.710;2023-03-04T03:46:42;101746.81;;;3.29;100.00
54308;BME280;40208;39.778;2.710;2023-03-04T03:49:27;101790.56;;;3.54;100.00
54308;BME280;40208;39.778;2.710;2023-03-04T03:52:12;101794.03;;;3.58;100.00
54308;BME280;40208;39.778;2.710;2023-03-04T03:54:56;101744.16;;;3.27;100.00
54308;BME280;40208;39.778;2.710;2023-03-04T03:57:41;101795.78;;;3.62;100.00
54308;BME280;40208;39.778;2.710;2023-03-04T04:00:26;101790.53;;;3.62;100.00
54308;BME280;40208;39.778;2.710;2023-03-04T04:03:14;101789.69;;;3.63;100.00
54308;BME280;40208;39.778;2.710;2023-03-04T04:05:59;101789.69;;;3.71;100.00
54308;BME280;40208;39.778;2.710;2023-03-04T04:08:44;101784.41;;;3.60;100.00
54308;BME280;40208;39.778;2.710;2023-03-04T04:11:28;101787.03;;;3.60;100.00
54308;BME280;40208;39.778;2.710;2023-03-04T04:14:13;101732.81;;;3.28;100.00
54308;BME280;40208;39.778;2.710;2023-03-04T04:16:59;101792.31;;;3.57;100.00
54308;BME280;40208;39.778;2.710;2023-03-04T04:19:43;101787.91;;;3.57;100.00
54308;BME280;40208;39.778;2.710;2023-03-04T04:22:28;101794.03;;;3.58;100.00
54308;BME280;40208;39.778;2.710;2023-03-04T04:25:13;101787.91;;;3.53;100.00
54308;BME280;40208;39.778;2.710;2023-03-04T04:27:58;101788.81;;;3.43;100.00
54308;BME280;40208;39.778;2.710;2023-03-04T04:30:43;101736.31;;;3.09;100.00
54308;BME280;40208;39.778;2.710;2023-03-04T04:33:27;101738.94;;;3.09;100.00
54308;BME280;40208;39.778;2.710;2023-03-04T04:36:14;101791.44;;;3.39;100.00
54308;BME280;40208;39.778;2.710;2023-03-04T04:38:59;101737.19;;;3.09;100.00
54308;BME280;40208;39.778;2.710;2023-03-04T04:41:44;101788.78;;;3.38;100.00
54308;BME280;40208;39.778;2.710;2023-03-04T04:44:29;101786.19;;;3.39;100.00
54308;BME280;40208;39.778;2.710;2023-03-04T04:47:15;101792.31;;;3.32;100.00
54308;BME280;40208;39.778;2.710;2023-03-04T04:50:00;101785.28;;;3.28;100.00
54308;BME280;40208;39.778;2.710;2023-03-04T04:52:44;101741.53;;;3.00;100.00
54308;BME280;40208;39.778;2.710;2023-03-04T04:55:29;101773.91;;;3.06;100.00
54308;BME280;40208;39.778;2.710;2023-03-04T04:58:14;101796.66;;;3.32;100.00
54308;BME280;40208;39.778;2.710;2023-03-04T05:00:59;101799.28;;;3.30;100.00
54308;BME280;40208;39.778;2.710;2023-03-04T05:03:44;101797.53;;;3.29;100.00
54308;BME280;40208;39.778;2.710;2023-03-04T05:06:29;101797.53;;;3.32;100.00
54308;BME280;40208;39.778;2.710;2023-03-04T05:09:14;101772.19;;;3.25;100.00
54308;BME280;40208;39.778;2.710;2023-03-04T05:11:59;101771.28;;;3.09;100.00
54308;BME280;40208;39.778;2.710;2023-03-04T05:14:44;101787.00;;;3.20;100.00
54308;BME280;40208;39.778;2.710;2023-03-04T05:17:28;101796.66;;;3.26;100.00
54308;BME280;40208;39.778;2.710;2023-03-04T05:20:13;101801.88;;;3.27;100.00
54308;BME280;40208;39.778;2.710;2023-03-04T05:22:58;101810.63;;;3.18;100.00
54308;BME280;40208;39.778;2.710;2023-03-04T05:25:43;101810.63;;;3.09;100.00
54308;BME280;40208;39.778;2.710;2023-03-04T05:28:28;101764.22;;;2.79;100.00
54308;BME280;40208;39.778;2.710;2023-03-04T05:31:13;101814.97;;;3.06;100.00
54308;BME280;40208;39.778;2.710;2023-03-04T05:33:58;101757.19;;;2.75;100.00
54308;BME280;40208;39.778;2.710;2023-03-04T05:36:43;101813.25;;;3.09;100.00
54308;BME280;40208;39.778;2.710;2023-03-04T05:39:28;101815.88;;;3.11;100.00
54308;BME280;40208;39.778;2.710;2023-03-04T05:42:13;101768.63;;;2.88;100.00
54308;BME280;40208;39.778;2.710;2023-03-04T05:44:58;101767.75;;;2.90;100.00
54308;BME280;40208;39.778;2.710;2023-03-04T05:47:43;101804.50;;;3.12;100.00
54308;BME280;40208;39.778;2.710;2023-03-04T05:50:29;101808.84;;;3.02;100.00
54308;BME280;40208;39.778;2.710;2023-03-04T05:53:14;101796.59;;;2.90;100.00
54308;BME280;40208;39.778;2.710;2023-03-04T05:55:59;101821.97;;;3.08;100.00
54308;BME280;40208;39.778;2.710;2023-03-04T05:58:44;101757.16;;;2.60;100.00
54308;BME280;40208;39.778;2.710;2023-03-04T06:01:31;101793.94;;;2.78;100.00
54308;BME280;40208;39.778;2.710;2023-03-04T06:04:16;101823.72;;;3.02;100.00
54308;BME280;40208;39.778;2.710;2023-03-04T06:07:01;101824.56;;;2.96;100.00
54308;BME280;40208;39.778;2.710;2023-03-04T06:09:45;101832.41;;;2.93;100.00
54308;BME280;40208;39.778;2.710;2023-03-04T06:12:30;101835.06;;;2.94;100.00
54308;BME280;40208;39.778;2.710;2023-03-04T06:15:15;101799.13;;;2.66;100.00
54308;BME280;40208;39.778;2.710;2023-03-04T06:18:01;101754.47;;;2.41;100.00
54308;BME280;40208;39.778;2.710;2023-03-04T06:20:46;101779.81;;;2.48;100.00
54308;BME280;40208;39.778;2.710;2023-03-04T06:23:31;101830.63;;;2.78;100.00
54308;BME280;40208;39.778;2.710;2023-03-04T06:26:16;101845.50;;;2.84;100.00
54308;BME280;40208;39.778;2.710;2023-03-04T06:29:01;101847.25;;;2.83;100.00
54308;BME280;40208;39.778;2.710;2023-03-04T06:31:45;101849.88;;;2.80;100.00
54308;BME280;40208;39.778;2.710;2023-03-04T06:34:31;101792.97;;;2.54;100.00
54308;BME280;40208;39.778;2.710;2023-03-04T06:37:18;101817.50;;;2.76;100.00
54308;BME280;40208;39.778;2.710;2023-03-04T06:40:03;101803.50;;;2.64;100.00
54308;BME280;40208;39.778;2.710;2023-03-04T06:42:48;101856.00;;;2.91;100.00
54308;BME280;40208;39.778;2.710;2023-03-04T06:45:33;101860.41;;;2.97;100.00
54308;BME280;40208;39.778;2.710;2023-03-04T06:48:18;101862.16;;;3.03;100.00
54308;BME280;40208;39.778;2.710;2023-03-04T06:51:08;101781.56;;;2.48;100.00
54308;BME280;40208;39.778;2.710;2023-03-04T06:53:53;101876.16;;;3.02;100.00
54308;BME280;40208;39.778;2.710;2023-03-04T06:56:38;101821.84;;;2.68;100.00
54308;BME280;40208;39.778;2.710;2023-03-04T06:59:23;101826.22;;;2.77;100.00
54308;BME280;40208;39.778;2.710;2023-03-04T07:02:10;101823.66;;;2.80;100.00
54308;BME280;40208;39.778;2.710;2023-03-04T07:04:55;101884.06;;;3.20;100.00
54308;BME280;40208;39.778;2.710;2023-03-04T07:07:41;101894.63;;;3.28;100.00
54308;BME280;40208;39.778;2.710;2023-03-04T07:10:26;101854.31;;;3.00;100.00
54308;BME280;40208;39.778;2.710;2023-03-04T07:13:11;101898.97;;;3.27;100.00
54308;BME280;40208;39.778;2.710;2023-03-04T07:15:56;101891.09;;;3.32;100.00
54308;BME280;40208;39.778;2.710;2023-03-04T07:18:41;101826.31;;;3.00;100.00
54308;BME280;40208;39.778;2.710;2023-03-04T07:21:26;101826.31;;;2.95;100.00
54308;BME280;40208;39.778;2.710;2023-03-04T07:24:11;101815.81;;;2.88;100.00
54308;BME280;40208;39.778;2.710;2023-03-04T07:26:57;101913.00;;;3.51;100.00
54308;BME280;40208;39.778;2.710;2023-03-04T07:29:42;101909.53;;;3.58;100.00
54308;BME280;40208;39.778;2.710;2023-03-04T07:32:27;101899.91;;;3.54;100.00
54308;BME280;40208;39.778;2.710;2023-03-04T07:35:12;101913.94;;;3.73;100.00
54308;BME280;40208;39.778;2.710;2023-03-04T07:37:56;101891.19;;;3.61;100.00
54308;BME280;40208;39.778;2.710;2023-03-04T07:40:41;101931.44;;;3.94;100.00
54308;BME280;40208;39.778;2.710;2023-03-04T07:43:26;101922.69;;;4.01;100.00
54308;BME280;40208;39.778;2.710;2023-03-04T07:46:11;101934.13;;;4.11;100.00
54308;BME280;40208;39.778;2.710;2023-03-04T07:48:57;101909.59;;;4.09;100.00
54308;BME280;40208;39.778;2.710;2023-03-04T07:51:41;101912.22;;;4.18;100.00
54308;BME280;40208;39.778;2.710;2023-03-04T07:54:26;101954.22;;;4.59;100.00
54308;BME280;40208;39.778;2.710;2023-03-04T07:57:11;101909.56;;;4.53;100.00
54308;BME280;40208;39.778;2.710;2023-03-04T07:59:56;101872.69;;;4.68;100.00
54308;BME280;40208;39.778;2.710;2023-03-04T08:02:41;101945.19;;;5.40;100.00
54308;BME280;40208;39.778;2.710;2023-03-04T08:05:25;101915.28;;;5.52;100.00
54308;BME280;40208;39.778;2.710;2023-03-04T08:08:10;101941.31;;;6.00;100.00
54308;BME280;40208;39.778;2.710;2023-03-04T08:10:55;101927.25;;;6.02;100.00
54308;BME280;40208;39.778;2.710;2023-03-04T08:13:40;101881.69;;;5.83;100.00
54308;BME280;40208;39.778;2.710;2023-03-04T08:16:25;101977.81;;;6.52;100.00
54308;BME280;40208;39.778;2.710;2023-03-04T08:19:11;101950.56;;;6.51;100.00
54308;BME280;40208;39.778;2.710;2023-03-04T08:21:55;101976.69;;;6.77;100.00
54308;BME280;40208;39.778;2.710;2023-03-04T08:24:40;101906.63;;;6.50;100.00
54308;BME280;40208;39.778;2.710;2023-03-04T08:27:25;101897.75;;;6.57;100.00
54308;BME280;40208;39.778;2.710;2023-03-04T08:30:11;101901.88;;;6.82;100.00
54308;BME280;40208;39.778;2.710;2023-03-04T08:32:55;101952.47;;;7.19;100.00
54308;BME280;40208;39.778;2.710;2023-03-04T08:35:40;101970.59;;;7.48;100.00
54308;BME280;40208;39.778;2.710;2023-03-04T08:38:25;101930.19;;;7.40;100.00
54308;BME280;40208;39.778;2.710;2023-03-04T08:41:11;101911.25;;;7.71;100.00
54308;BME280;40208;39.778;2.710;2023-03-04T08:43:58;101691.00;;;6.66;100.00
54308;BME280;40208;39.778;2.710;2023-03-04T08:46:43;101900.81;;;8.17;100.00
54308;BME280;40208;39.778;2.710;2023-03-04T08:49:28;101902.28;;;8.35;100.00
54308;BME280;40208;39.778;2.710;2023-03-04T08:52:13;101902.72;;;8.59;100.00
54308;BME280;40208;39.778;2.710;2023-03-04T08:54:58;101900.59;;;8.78;100.00
54308;BME280;40208;39.778;2.710;2023-03-04T08:57:42;101944.66;;;9.25;100.00
54308;BME280;40208;39.778;2.710;2023-03-04T09:00:27;101913.72;;;9.27;100.00
54308;BME280;40208;39.778;2.710;2023-03-04T09:03:13;101874.78;;;9.31;100.00
54308;BME280;40208;39.778;2.710;2023-03-04T09:06:00;101904.09;;;9.64;100.00
54308;BME280;40208;39.778;2.710;2023-03-04T09:08:45;101880.00;;;9.73;100.00
54308;BME280;40208;39.778;2.710;2023-03-04T09:11:31;101934.44;;;10.25;100.00
54308;BME280;40208;39.778;2.710;2023-03-04T09:14:15;101908.50;;;10.36;100.00
54308;BME280;40208;39.778;2.710;2023-03-04T09:17:04;101899.34;;;10.48;100.00
54308;BME280;40208;39.778;2.710;2023-03-04T09:19:49;101842.75;;;10.48;100.00
54308;BME280;40208;39.778;2.710;2023-03-04T09:22:38;101924.25;;;11.08;100.00
54308;BME280;40208;39.778;2.710;2023-03-04T09:25:24;101921.09;;;11.25;100.00
54308;BME280;40208;39.778;2.710;2023-03-04T09:28:10;101934.97;;;11.35;100.00
54308;BME280;40208;39.778;2.710;2023-03-04T09:30:55;101924.72;;;11.51;100.00
54308;BME280;40208;39.778;2.710;2023-03-04T09:33:40;101916.25;;;11.67;100.00
54308;BME280;40208;39.778;2.710;2023-03-04T09:36:26;101898.69;;;11.62;100.00
54308;BME280;40208;39.778;2.710;2023-03-04T09:39:11;101925.16;;;11.95;100.00
54308;BME280;40208;39.778;2.710;2023-03-04T09:41:57;101906.28;;;12.02;100.00
54308;BME280;40208;39.778;2.710;2023-03-04T09:44:45;101928.53;;;12.26;100.00
54308;BME280;40208;39.778;2.710;2023-03-04T09:47:33;101894.28;;;12.17;100.00
54308;BME280;40208;39.778;2.710;2023-03-04T09:50:20;101920.63;;;12.50;100.00
54308;BME280;40208;39.778;2.710;2023-03-04T09:55:53;101885.00;;;12.54;100.00
54308;BME280;40208;39.778;2.710;2023-03-04T09:58:49;101926.88;;;12.99;100.00
54308;BME280;40208;39.778;2.710;2023-03-04T10:01:46;101705.78;;;11.78;100.00
54308;BME280;40208;39.778;2.710;2023-03-04T10:07:30;101926.91;;;13.46;100.00
54308;BME280;40208;39.778;2.710;2023-03-04T10:10:23;101743.22;;;12.47;100.00
54308;BME280;40208;39.778;2.710;2023-03-04T10:13:16;101782.59;;;12.86;100.00
54308;BME280;40208;39.778;2.710;2023-03-04T10:16:04;101918.50;;;13.79;100.00
54308;BME280;40208;39.778;2.710;2023-03-04T10:19:20;101875.19;;;13.72;100.00
54308;BME280;40208;39.778;2.710;2023-03-04T10:22:18;101785.28;;;13.52;100.00
54308;BME280;40208;39.778;2.710;2023-03-04T10:25:28;101915.50;;;14.50;100.00
54308;BME280;40208;39.778;2.710;2023-03-04T10:28:18;101917.81;;;14.59;100.00
54308;BME280;40208;39.778;2.710;2023-03-04T10:33:49;101870.91;;;14.52;100.00
54308;BME280;40208;39.778;2.710;2023-03-04T10:36:47;101917.59;;;15.04;100.00
54308;BME280;40208;39.778;2.710;2023-03-04T10:39:40;101925.66;;;15.03;100.00
54308;BME280;40208;39.778;2.710;2023-03-04T10:42:28;101921.59;;;14.94;100.00
54308;BME280;40208;39.778;2.710;2023-03-04T10:45:22;101920.31;;;15.03;100.00
54308;BME280;40208;39.778;2.710;2023-03-04T10:48:20;101925.47;;;15.08;100.00
54308;BME280;40208;39.778;2.710;2023-03-04T10:51:15;101900.56;;;14.87;100.00
54308;BME280;40208;39.778;2.710;2023-03-04T10:54:16;101938.47;;;15.15;100.00
54308;BME280;40208;39.778;2.710;2023-03-04T10:57:04;101800.69;;;14.29;100.00
54308;BME280;40208;39.778;2.710;2023-03-04T11:00:01;101939.00;;;15.23;100.00
54308;BME280;40208;39.778;2.710;2023-03-04T11:02:47;101941.22;;;15.33;100.00
54308;BME280;40208;39.778;2.710;2023-03-04T11:05:32;101899.22;;;15.16;100.00
54308;BME280;40208;39.778;2.710;2023-03-04T11:08:20;101897.44;;;15.16;100.00
54308;BME280;40208;39.778;2.710;2023-03-04T11:14:26;101795.13;;;14.54;100.00
54308;BME280;40208;39.778;2.710;2023-03-04T11:17:22;101928.00;;;15.67;100.00
54308;BME280;40208;39.778;2.710;2023-03-04T11:20:32;101927.84;;;15.52;100.00
54308;BME280;40208;39.778;2.710;2023-03-04T11:26:15;101876.50;;;15.62;100.00
54308;BME280;40208;39.778;2.710;2023-03-04T11:29:11;101871.16;;;15.62;100.00
54308;BME280;40208;39.778;2.710;2023-03-04T11:32:07;101910.63;;;15.95;100.00
54308;BME280;40208;39.778;2.710;2023-03-04T11:38:19;101910.41;;;16.17;100.00
54308;BME280;40208;39.778;2.710;2023-03-04T11:41:34;101907.00;;;15.96;100.00
54308;BME280;40208;39.778;2.710;2023-03-04T11:44:21;101771.19;;;15.10;100.00
54308;BME280;40208;39.778;2.710;2023-03-04T12:02:19;101812.34;;;15.97;100.00
54308;BME280;40208;39.778;2.710;2023-03-04T12:08:18;101637.19;;;14.62;100.00
54308;BME280;40208;39.778;2.710;2023-03-04T12:11:24;101702.81;;;15.04;100.00
54308;BME280;40208;39.778;2.710;2023-03-04T12:14:20;101858.78;;;15.96;100.00
54308;BME280;40208;39.778;2.710;2023-03-04T12:23:46;101846.03;;;15.84;100.00
54308;BME280;40208;39.778;2.710;2023-03-04T12:27:23;101681.31;;;15.07;100.00
54308;BME280;40208;39.778;2.710;2023-03-04T12:39:14;101842.66;;;15.98;100.00
54308;BME280;40208;39.778;2.710;2023-03-04T13:14:38;101750.81;;;15.61;100.00
54308;BME280;40208;39.778;2.710;2023-03-04T13:17:36;101798.97;;;15.97;100.00
54308;BME280;40208;39.778;2.710;2023-03-04T13:20:41;101796.66;;;16.07;100.00
54308;BME280;40208;39.778;2.710;2023-03-04T13:23:28;101793.28;;;16.21;100.00
54308;BME280;40208;39.778;2.710;2023-03-04T13:26:17;101796.78;;;16.39;100.00
54308;BME280;40208;39.778;2.710;2023-03-04T13:32:02;101783.56;;;16.36;100.00
54308;BME280;40208;39.778;2.710;2023-03-04T13:37:34;101655.19;;;15.64;100.00
54308;BME280;40208;39.778;2.710;2023-03-04T13:43:23;101776.91;;;16.43;100.00
54308;BME280;40208;39.778;2.710;2023-03-04T13:49:03;101734.59;;;16.16;100.00
54308;BME280;40208;39.778;2.710;2023-03-04T13:51:51;101757.25;;;16.26;100.00
54308;BME280;40208;39.778;2.710;2023-03-04T13:54:36;101633.06;;;15.61;100.00
54308;BME280;40208;39.778;2.710;2023-03-04T13:57:21;101710.13;;;16.06;100.00
54308;BME280;40208;39.778;2.710;2023-03-04T14:00:11;101653.19;;;15.68;100.00
54308;BME280;40208;39.778;2.710;2023-03-04T14:02:56;101741.47;;;16.04;100.00
54308;BME280;40208;39.778;2.710;2023-03-04T14:05:40;101578.19;;;15.01;100.00
54308;BME280;40208;39.778;2.710;2023-03-04T14:08:25;101722.59;;;15.90;100.00
54308;BME280;40208;39.778;2.710;2023-03-04T14:11:15;101723.13;;;15.79;100.00
54308;BME280;40208;39.778;2.710;2023-03-04T14:14:04;101678.97;;;15.53;100.00
54308;BME280;40208;39.778;2.710;2023-03-04T14:16:56;101765.41;;;15.90;100.00
54308;BME280;40208;39.778;2.710;2023-03-04T14:19:44;101623.78;;;15.16;100.00
54308;BME280;40208;39.778;2.710;2023-03-04T14:22:32;101758.31;;;15.89;100.00
54308;BME280;40208;39.778;2.710;2023-03-04T14:25:26;101625.69;;;14.96;100.00
54308;BME280;40208;39.778;2.710;2023-03-04T14:28:15;101758.00;;;15.78;100.00
54308;BME280;40208;39.778;2.710;2023-03-04T14:31:00;101729.72;;;15.55;100.00
54308;BME280;40208;39.778;2.710;2023-03-04T14:33:50;101546.56;;;14.38;100.00
54308;BME280;40208;39.778;2.710;2023-03-04T14:36:36;101724.75;;;15.47;100.00
54308;BME280;40208;39.778;2.710;2023-03-04T14:39:24;101735.16;;;15.53;100.00
54308;BME280;40208;39.778;2.710;2023-03-04T14:42:11;101643.69;;;14.93;100.00
54308;BME280;40208;39.778;2.710;2023-03-04T14:44:58;101563.72;;;14.52;100.00
54308;BME280;40208;39.778;2.710;2023-03-04T14:47:44;101551.59;;;14.45;100.00
54308;BME280;40208;39.778;2.710;2023-03-04T14:50:31;101725.75;;;15.44;100.00
54308;BME280;40208;39.778;2.710;2023-03-04T14:53:20;101712.31;;;15.29;100.00
54308;BME280;40208;39.778;2.710;2023-03-04T14:56:09;101721.03;;;15.32;100.00
54308;BME280;40208;39.778;2.710;2023-03-04T14:58:56;101720.34;;;15.29;100.00
54308;BME280;40208;39.778;2.710;2023-03-04T15:01:41;101725.75;;;15.27;100.00
54308;BME280;40208;39.778;2.710;2023-03-04T15:04:28;101677.72;;;15.06;100.00
54308;BME280;40208;39.778;2.710;2023-03-04T15:07:20;101709.13;;;15.20;100.00
54308;BME280;40208;39.778;2.710;2023-03-04T15:10:10;101720.47;;;15.25;100.00
54308;BME280;40208;39.778;2.710;2023-03-04T15:12:59;101477.94;;;13.85;100.00
54308;BME280;40208;39.778;2.710;2023-03-04T15:15:45;101717.66;;;15.29;100.00
54308;BME280;40208;39.778;2.710;2023-03-04T15:18:31;101640.25;;;14.72;100.00
54308;BME280;40208;39.778;2.710;2023-03-04T15:24:05;101694.03;;;15.02;100.00
54308;BME280;40208;39.778;2.710;2023-03-04T15:26:50;101689.03;;;14.94;100.00
54308;BME280;40208;39.778;2.710;2023-03-04T15:29:35;101642.59;;;14.60;100.00
54308;BME280;40208;39.778;2.710;2023-03-04T15:32:22;101718.00;;;15.03;100.00
54308;BME280;40208;39.778;2.710;2023-03-04T15:35:14;101718.38;;;14.96;100.00
54308;BME280;40208;39.778;2.710;2023-03-04T15:38:01;101458.56;;;13.44;100.00
54308;BME280;40208;39.778;2.710;2023-03-04T15:40:49;101668.28;;;14.63;100.00
54308;BME280;40208;39.778;2.710;2023-03-04T15:43:35;101515.22;;;13.68;100.00
54308;BME280;40208;39.778;2.710;2023-03-04T15:46:20;101521.06;;;13.76;100.00
54308;BME280;40208;39.778;2.710;2023-03-04T15:49:05;101576.97;;;14.17;100.00
54308;BME280;40208;39.778;2.710;2023-03-04T15:51:50;101517.09;;;13.66;100.00
54308;BME280;40208;39.778;2.710;2023-03-04T15:54:37;101579.94;;;14.11;100.00
54308;BME280;40208;39.778;2.710;2023-03-04T15:57:24;101583.25;;;14.16;100.00
54308;BME280;40208;39.778;2.710;2023-03-04T16:00:12;101694.91;;;14.83;100.00
54308;BME280;40208;39.778;2.710;2023-03-04T16:02:57;101532.88;;;13.51;100.00
54308;BME280;40208;39.778;2.710;2023-03-04T16:05:42;101569.75;;;13.81;100.00
54308;BME280;40208;39.778;2.710;2023-03-04T16:08:29;101706.41;;;14.67;100.00
54308;BME280;40208;39.778;2.710;2023-03-04T16:11:23;101555.09;;;13.71;100.00
54308;BME280;40208;39.778;2.710;2023-03-04T16:14:10;101704.13;;;14.38;100.00